sensor_id;sensor_type;location;lat;lon;timestamp;pressure;altitude;pressure_sealevel;temperature;humidity
82416;BME280;72058;47.782;10.618;2023-09-08T00:02:06;93782.47;;;17.12;73.10
82416;BME280;72058;47.782;10.618;2023-09-08T00:04:32;93789.13;;;17.11;72.89
82416;BME280;72058;47.782;10.618;2023-09-08T00:06:58;93785.72;;;17.01;73.22
82416;BME280;72058;47.782;10.618;2023-09-08T00:09:24;93788.25;;;17.06;72.88
82416;BME280;72058;47.782;10.618;2023-09-08T00:11:49;93788.25;;;17.06;72.84
82416;BME280;72058;47.782;10.618;2023-09-08T00:14:14;93782.03;;;17.10;73.14
82416;BME280;72058;47.782;10.618;2023-09-08T00:16:40;93779.88;;;16.87;73.57
82416;BME280;72058;47.782;10.618;2023-09-08T00:19:08;93785.50;;;17.06;72.94
82416;BME280;72058;47.782;10.618;2023-09-08T00:21:33;93785.22;;;17.12;72.86
82416;BME280;72058;47.782;10.618;2023-09-08T00:23:58;93786.38;;;17.11;72.92
82416;BME280;72058;47.782;10.618;2023-09-08T00:26:24;93786.47;;;16.98;72.99
82416;BME280;72058;47.782;10.618;2023-09-08T00:28:50;93780.84;;;16.95;73.06
82416;BME280;72058;47.782;10.618;2023-09-08T00:31:15;93771.28;;;16.89;73.48
82416;BME280;72058;47.782;10.618;2023-09-08T00:33:40;93774.56;;;16.94;73.06
82416;BME280;72058;47.782;10.618;2023-09-08T00:36:09;93775.88;;;17.00;73.40
82416;BME280;72058;47.782;10.618;2023-09-08T00:38:34;93775.31;;;16.79;73.88
82416;BME280;72058;47.782;10.618;2023-09-08T00:40:59;93774.63;;;16.54;74.78
82416;BME280;72058;47.782;10.618;2023-09-08T00:43:26;93769.88;;;16.39;75.62
82416;BME280;72058;47.782;10.618;2023-09-08T00:45:52;93769.06;;;16.39;75.51
82416;BME280;72058;47.782;10.618;2023-09-08T00:48:19;93767.69;;;16.32;76.26
82416;BME280;72058;47.782;10.618;2023-09-08T00:50:44;93775.75;;;16.53;75.11
82416;BME280;72058;47.782;10.618;2023-09-08T00:53:10;93776.28;;;16.71;74.93
82416;BME280;72058;47.782;10.618;2023-09-08T00:55:35;93777.34;;;16.82;74.29
82416;BME280;72058;47.782;10.618;2023-09-08T00:58:01;93783.25;;;16.96;73.22
82416;BME280;72058;47.782;10.618;2023-09-08T01:00:27;93782.16;;;16.85;73.55
82416;BME280;72058;47.782;10.618;2023-09-08T01:02:53;93769.75;;;16.91;73.27
82416;BME280;72058;47.782;10.618;2023-09-08T01:05:19;93768.38;;;16.97;72.92
82416;BME280;72058;47.782;10.618;2023-09-08T01:07:45;93766.41;;;16.98;72.56
82416;BME280;72058;47.782;10.618;2023-09-08T01:10:12;93766.03;;;16.84;73.67
82416;BME280;72058;47.782;10.618;2023-09-08T01:12:39;93766.94;;;16.88;73.19
82416;BME280;72058;47.782;10.618;2023-09-08T01:15:05;93754.44;;;16.90;72.82
82416;BME280;72058;47.782;10.618;2023-09-08T01:17:31;93760.19;;;16.85;72.59
82416;BME280;72058;47.782;10.618;2023-09-08T01:20:02;93760.53;;;16.84;72.85
82416;BME280;72058;47.782;10.618;2023-09-08T01:25:24;93753.97;;;16.73;72.89
82416;BME280;72058;47.782;10.618;2023-09-08T01:27:51;93756.78;;;16.76;72.74
82416;BME280;72058;47.782;10.618;2023-09-08T01:30:17;93751.69;;;16.90;72.34
82416;BME280;72058;47.782;10.618;2023-09-08T01:32:44;93750.50;;;16.91;72.41
82416;BME280;72058;47.782;10.618;2023-09-08T01:35:09;93746.56;;;17.04;71.69
82416;BME280;72058;47.782;10.618;2023-09-08T01:37:35;93740.09;;;16.97;71.83
82416;BME280;72058;47.782;10.618;2023-09-08T01:40:01;93739.28;;;16.96;72.29
82416;BME280;72058;47.782;10.618;2023-09-08T01:42:26;93733.78;;;16.96;72.70
82416;BME280;72058;47.782;10.618;2023-09-08T01:44:52;93732.09;;;17.07;72.36
82416;BME280;72058;47.782;10.618;2023-09-08T01:47:17;93741.28;;;16.84;73.49
82416;BME280;72058;47.782;10.618;2023-09-08T01:49:42;93734.81;;;16.76;73.14
82416;BME280;72058;47.782;10.618;2023-09-08T01:52:08;93733.63;;;16.61;73.31
82416;BME280;72058;47.782;10.618;2023-09-08T01:54:33;93736.03;;;16.63;73.20
82416;BME280;72058;47.782;10.618;2023-09-08T01:56:58;93729.59;;;16.59;73.14
82416;BME280;72058;47.782;10.618;2023-09-08T01:59:24;93729.53;;;16.55;73.44
82416;BME280;72058;47.782;10.618;2023-09-08T02:01:49;93735.25;;;16.50;73.62
82416;BME280;72058;47.782;10.618;2023-09-08T02:04:14;93732.84;;;16.49;73.91
82416;BME280;72058;47.782;10.618;2023-09-08T02:06:40;93736.31;;;16.46;73.99
82416;BME280;72058;47.782;10.618;2023-09-08T02:09:05;93738.34;;;16.49;73.96
82416;BME280;72058;47.782;10.618;2023-09-08T02:11:30;93724.97;;;16.47;73.98
82416;BME280;72058;47.782;10.618;2023-09-08T02:13:56;93726.13;;;16.46;74.13
82416;BME280;72058;47.782;10.618;2023-09-08T02:16:21;93727.63;;;16.44;74.27
82416;BME280;72058;47.782;10.618;2023-09-08T02:18:47;93731.44;;;16.39;74.40
82416;BME280;72058;47.782;10.618;2023-09-08T02:21:12;93731.50;;;16.43;74.04
82416;BME280;72058;47.782;10.618;2023-09-08T02:23:37;93725.94;;;16.39;74.33
82416;BME280;72058;47.782;10.618;2023-09-08T02:26:03;93722.47;;;16.42;73.73
82416;BME280;72058;47.782;10.618;2023-09-08T02:28:28;93729.25;;;16.32;74.14
82416;BME280;72058;47.782;10.618;2023-09-08T02:30:54;93726.44;;;16.29;74.02
82416;BME280;72058;47.782;10.618;2023-09-08T02:33:20;93724.22;;;16.35;74.02
82416;BME280;72058;47.782;10.618;2023-09-08T02:35:45;93728.91;;;16.34;74.25
82416;BME280;72058;47.782;10.618;2023-09-08T02:38:11;93731.56;;;16.30;74.17
82416;BME280;72058;47.782;10.618;2023-09-08T02:40:36;93719.44;;;16.31;74.36
82416;BME280;72058;47.782;10.618;2023-09-08T02:43:02;93729.06;;;16.25;74.87
82416;BME280;72058;47.782;10.618;2023-09-08T02:45:28;93723.81;;;16.20;75.37
82416;BME280;72058;47.782;10.618;2023-09-08T02:47:54;93723.03;;;16.20;75.37
82416;BME280;72058;47.782;10.618;2023-09-08T02:50:19;93724.06;;;16.15;75.12
82416;BME280;72058;47.782;10.618;2023-09-08T02:52:45;93726.47;;;16.17;75.03
82416;BME280;72058;47.782;10.618;2023-09-08T02:55:11;93721.69;;;16.14;75.46
82416;BME280;72058;47.782;10.618;2023-09-08T02:57:38;93727.72;;;16.19;75.27
82416;BME280;72058;47.782;10.618;2023-09-08T03:00:04;93721.09;;;16.20;75.68
82416;BME280;72058;47.782;10.618;2023-09-08T03:02:30;93728.38;;;16.28;75.02
82416;BME280;72058;47.782;10.618;2023-09-08T03:04:56;93733.31;;;16.23;75.69
82416;BME280;72058;47.782;10.618;2023-09-08T03:07:22;93727.38;;;16.21;75.50
82416;BME280;72058;47.782;10.618;2023-09-08T03:09:47;93723.63;;;16.13;76.21
82416;BME280;72058;47.782;10.618;2023-09-08T03:12:13;93727.84;;;16.23;75.73
82416;BME280;72058;47.782;10.618;2023-09-08T03:14:38;93735.25;;;16.22;75.73
82416;BME280;72058;47.782;10.618;2023-09-08T03:17:03;93735.88;;;16.04;77.11
82416;BME280;72058;47.782;10.618;2023-09-08T03:19:29;93736.63;;;16.16;75.69
82416;BME280;72058;47.782;10.618;2023-09-08T03:21:54;93739.91;;;16.06;76.17
82416;BME280;72058;47.782;10.618;2023-09-08T03:24:19;93734.91;;;16.24;74.61
82416;BME280;72058;47.782;10.618;2023-09-08T03:26:45;93733.16;;;15.91;76.42
82416;BME280;72058;47.782;10.618;2023-09-08T03:29:10;93736.50;;;15.85;76.43
82416;BME280;72058;47.782;10.618;2023-09-08T03:31:36;93738.44;;;15.84;76.76
82416;BME280;72058;47.782;10.618;2023-09-08T03:34:01;93739.91;;;15.82;76.43
82416;BME280;72058;47.782;10.618;2023-09-08T03:36:26;93746.53;;;15.93;76.25
82416;BME280;72058;47.782;10.618;2023-09-08T03:38:52;93745.00;;;16.20;75.38
82416;BME280;72058;47.782;10.618;2023-09-08T03:41:18;93745.19;;;16.27;74.69
82416;BME280;72058;47.782;10.618;2023-09-08T03:43:43;93748.19;;;16.22;74.93
82416;BME280;72058;47.782;10.618;2023-09-08T03:46:08;93750.34;;;16.16;75.40
82416;BME280;72058;47.782;10.618;2023-09-08T03:48:34;93741.44;;;16.19;75.38
82416;BME280;72058;47.782;10.618;2023-09-08T03:50:59;93747.53;;;16.13;76.07
82416;BME280;72058;47.782;10.618;2023-09-08T03:53:25;93748.56;;;16.08;75.83
82416;BME280;72058;47.782;10.618;2023-09-08T03:55:51;93739.59;;;15.83;77.00
82416;BME280;72058;47.782;10.618;2023-09-08T03:58:16;93745.19;;;15.75;77.38
82416;BME280;72058;47.782;10.618;2023-09-08T04:00:42;93741.19;;;15.84;77.07
82416;BME280;72058;47.782;10.618;2023-09-08T04:03:08;93744.31;;;15.71;77.67
82416;BME280;72058;47.782;10.618;2023-09-08T04:05:33;93744.66;;;15.69;77.43
82416;BME280;72058;47.782;10.618;2023-09-08T04:07:59;93738.16;;;15.62;78.04
82416;BME280;72058;47.782;10.618;2023-09-08T04:10:24;93748.88;;;15.67;77.70
82416;BME280;72058;47.782;10.618;2023-09-08T04:12:50;93744.25;;;15.95;76.53
82416;BME280;72058;47.782;10.618;2023-09-08T04:15:15;93749.78;;;15.71;77.72
82416;BME280;72058;47.782;10.618;2023-09-08T04:17:40;93739.03;;;15.78;77.20
82416;BME280;72058;47.782;10.618;2023-09-08T04:20:07;93753.16;;;15.92;76.50
82416;BME280;72058;47.782;10.618;2023-09-08T04:22:35;93743.78;;;16.05;75.77
82416;BME280;72058;47.782;10.618;2023-09-08T04:25:01;93742.91;;;15.77;76.80
82416;BME280;72058;47.782;10.618;2023-09-08T04:27:27;93745.22;;;15.63;77.32
82416;BME280;72058;47.782;10.618;2023-09-08T04:29:52;93743.84;;;15.69;77.47
82416;BME280;72058;47.782;10.618;2023-09-08T04:32:17;93745.41;;;15.82;76.66
82416;BME280;72058;47.782;10.618;2023-09-08T04:34:43;93740.16;;;15.77;75.60
82416;BME280;72058;47.782;10.618;2023-09-08T04:37:09;93731.25;;;15.80;75.52
82416;BME280;72058;47.782;10.618;2023-09-08T04:39:35;93744.38;;;15.86;74.93
82416;BME280;72058;47.782;10.618;2023-09-08T04:42:01;93742.53;;;15.90;74.60
82416;BME280;72058;47.782;10.618;2023-09-08T04:44:26;93753.88;;;15.77;74.40
82416;BME280;72058;47.782;10.618;2023-09-08T04:46:52;93755.75;;;15.61;75.13
82416;BME280;72058;47.782;10.618;2023-09-08T04:49:18;93750.25;;;15.61;75.14
82416;BME280;72058;47.782;10.618;2023-09-08T04:51:44;93756.63;;;15.52;75.45
82416;BME280;72058;47.782;10.618;2023-09-08T04:54:09;93758.56;;;15.52;75.50
82416;BME280;72058;47.782;10.618;2023-09-08T04:56:34;93753.53;;;15.42;75.64
82416;BME280;72058;47.782;10.618;2023-09-08T04:59:00;93762.34;;;15.47;75.91
82416;BME280;72058;47.782;10.618;2023-09-08T05:01:26;93767.63;;;15.65;75.40
82416;BME280;72058;47.782;10.618;2023-09-08T05:03:52;93764.19;;;15.80;74.64
82416;BME280;72058;47.782;10.618;2023-09-08T05:06:18;93762.03;;;15.61;75.62
82416;BME280;72058;47.782;10.618;2023-09-08T05:08:43;93764.97;;;15.68;75.60
82416;BME280;72058;47.782;10.618;2023-09-08T05:11:09;93767.34;;;15.94;74.25
82416;BME280;72058;47.782;10.618;2023-09-08T05:13:35;93769.50;;;16.01;74.67
82416;BME280;72058;47.782;10.618;2023-09-08T05:16:00;93775.19;;;16.08;74.72
82416;BME280;72058;47.782;10.618;2023-09-08T05:18:36;93773.25;;;16.20;74.32
82416;BME280;72058;47.782;10.618;2023-09-08T05:21:01;93767.59;;;16.29;74.45
82416;BME280;72058;47.782;10.618;2023-09-08T05:23:27;93768.50;;;16.33;74.36
82416;BME280;72058;47.782;10.618;2023-09-08T05:25:52;93765.88;;;16.37;74.28
82416;BME280;72058;47.782;10.618;2023-09-08T05:28:18;93773.84;;;16.42;74.23
82416;BME280;72058;47.782;10.618;2023-09-08T05:30:43;93768.13;;;16.47;74.49
82416;BME280;72058;47.782;10.618;2023-09-08T05:33:08;93770.69;;;16.67;73.40
82416;BME280;72058;47.782;10.618;2023-09-08T05:35:34;93780.66;;;16.60;73.57
82416;BME280;72058;47.782;10.618;2023-09-08T05:37:59;93774.94;;;16.53;73.95
82416;BME280;72058;47.782;10.618;2023-09-08T05:40:24;93771.41;;;16.64;73.76
82416;BME280;72058;47.782;10.618;2023-09-08T05:42:51;93777.16;;;16.75;73.27
82416;BME280;72058;47.782;10.618;2023-09-08T05:45:16;93775.56;;;16.74;73.28
82416;BME280;72058;47.782;10.618;2023-09-08T05:47:42;93792.44;;;16.73;73.70
82416;BME280;72058;47.782;10.618;2023-09-08T05:50:07;93782.50;;;16.84;73.56
82416;BME280;72058;47.782;10.618;2023-09-08T05:52:33;93785.88;;;16.77;74.11
82416;BME280;72058;47.782;10.618;2023-09-08T05:54:58;93784.56;;;16.87;73.64
82416;BME280;72058;47.782;10.618;2023-09-08T05:57:24;93789.97;;;16.99;73.43
82416;BME280;72058;47.782;10.618;2023-09-08T05:59:49;93787.00;;;17.20;72.77
82416;BME280;72058;47.782;10.618;2023-09-08T06:02:15;93786.84;;;17.28;72.54
82416;BME280;72058;47.782;10.618;2023-09-08T06:04:40;93786.03;;;17.12;73.45
82416;BME280;72058;47.782;10.618;2023-09-08T06:07:05;93784.25;;;17.20;73.46
82416;BME280;72058;47.782;10.618;2023-09-08T06:09:32;93780.53;;;17.28;73.35
82416;BME280;72058;47.782;10.618;2023-09-08T06:11:57;93787.72;;;17.32;73.91
82416;BME280;72058;47.782;10.618;2023-09-08T06:14:22;93786.56;;;17.33;73.74
82416;BME280;72058;47.782;10.618;2023-09-08T06:16:48;93788.34;;;17.26;74.56
82416;BME280;72058;47.782;10.618;2023-09-08T06:19:13;93786.84;;;17.44;74.19
82416;BME280;72058;47.782;10.618;2023-09-08T06:21:39;93793.47;;;17.59;74.00
82416;BME280;72058;47.782;10.618;2023-09-08T06:24:04;93784.97;;;17.48;74.87
82416;BME280;72058;47.782;10.618;2023-09-08T06:26:30;93792.44;;;17.32;75.94
82416;BME280;72058;47.782;10.618;2023-09-08T06:28:55;93797.03;;;17.28;76.46
82416;BME280;72058;47.782;10.618;2023-09-08T06:31:20;93791.47;;;17.40;75.88
82416;BME280;72058;47.782;10.618;2023-09-08T06:33:46;93794.81;;;17.49;76.10
82416;BME280;72058;47.782;10.618;2023-09-08T06:36:11;93800.72;;;17.63;75.69
82416;BME280;72058;47.782;10.618;2023-09-08T06:38:37;93798.63;;;17.60;75.93
82416;BME280;72058;47.782;10.618;2023-09-08T06:41:08;93796.63;;;17.73;75.57
82416;BME280;72058;47.782;10.618;2023-09-08T06:43:34;93798.91;;;17.87;75.59
82416;BME280;72058;47.782;10.618;2023-09-08T06:46:00;93790.25;;;18.04;75.12
82416;BME280;72058;47.782;10.618;2023-09-08T06:48:25;93793.72;;;18.01;75.69
82416;BME280;72058;47.782;10.618;2023-09-08T06:50:53;93797.03;;;18.06;76.34
82416;BME280;72058;47.782;10.618;2023-09-08T06:53:19;93795.56;;;18.12;75.93
82416;BME280;72058;47.782;10.618;2023-09-08T06:55:44;93795.38;;;18.21;75.59
82416;BME280;72058;47.782;10.618;2023-09-08T06:58:10;93793.38;;;18.37;76.28
82416;BME280;72058;47.782;10.618;2023-09-08T07:00:35;93794.41;;;18.48;75.75
82416;BME280;72058;47.782;10.618;2023-09-08T07:03:01;93787.75;;;18.49;75.27
82416;BME280;72058;47.782;10.618;2023-09-08T07:05:27;93791.88;;;18.59;73.67
82416;BME280;72058;47.782;10.618;2023-09-08T07:07:52;93789.72;;;18.68;74.02
82416;BME280;72058;47.782;10.618;2023-09-08T07:10:19;93789.22;;;18.82;72.54
82416;BME280;72058;47.782;10.618;2023-09-08T07:12:44;93786.28;;;18.94;73.07
82416;BME280;72058;47.782;10.618;2023-09-08T07:15:10;93789.25;;;19.05;73.34
82416;BME280;72058;47.782;10.618;2023-09-08T07:17:35;93790.31;;;19.19;74.60
82416;BME280;72058;47.782;10.618;2023-09-08T07:20:01;93779.84;;;19.28;74.41
82416;BME280;72058;47.782;10.618;2023-09-08T07:22:27;93780.06;;;19.43;73.52
82416;BME280;72058;47.782;10.618;2023-09-08T07:24:52;93785.09;;;19.56;71.07
82416;BME280;72058;47.782;10.618;2023-09-08T07:27:17;93784.47;;;19.66;72.63
82416;BME280;72058;47.782;10.618;2023-09-08T07:29:44;93789.34;;;19.77;70.74
82416;BME280;72058;47.782;10.618;2023-09-08T07:32:10;93783.22;;;19.87;70.06
82416;BME280;72058;47.782;10.618;2023-09-08T07:34:35;93779.81;;;19.97;70.79
82416;BME280;72058;47.782;10.618;2023-09-08T07:37:01;93781.63;;;20.12;71.31
82416;BME280;72058;47.782;10.618;2023-09-08T07:39:29;93788.91;;;20.24;70.50
82416;BME280;72058;47.782;10.618;2023-09-08T07:41:55;93789.31;;;20.26;72.11
82416;BME280;72058;47.782;10.618;2023-09-08T07:44:21;93791.34;;;20.29;72.81
82416;BME280;72058;47.782;10.618;2023-09-08T07:46:47;93777.00;;;20.46;72.73
82416;BME280;72058;47.782;10.618;2023-09-08T07:49:14;93795.66;;;20.53;72.68
82416;BME280;72058;47.782;10.618;2023-09-08T07:51:40;93786.44;;;20.71;72.51
82416;BME280;72058;47.782;10.618;2023-09-08T07:54:05;93791.25;;;20.78;71.06
82416;BME280;72058;47.782;10.618;2023-09-08T07:56:31;93791.97;;;21.05;71.35
82416;BME280;72058;47.782;10.618;2023-09-08T07:58:57;93791.88;;;21.31;70.37
82416;BME280;72058;47.782;10.618;2023-09-08T08:01:23;93791.81;;;21.24;70.09
82416;BME280;72058;47.782;10.618;2023-09-08T08:03:48;93791.44;;;21.26;70.56
82416;BME280;72058;47.782;10.618;2023-09-08T08:06:13;93787.91;;;21.29;69.39
82416;BME280;72058;47.782;10.618;2023-09-08T08:08:39;93791.16;;;21.38;69.30
82416;BME280;72058;47.782;10.618;2023-09-08T08:11:11;93789.19;;;21.38;69.41
82416;BME280;72058;47.782;10.618;2023-09-08T08:13:37;93792.38;;;21.40;69.33
82416;BME280;72058;47.782;10.618;2023-09-08T08:16:03;93797.91;;;21.40;70.93
82416;BME280;72058;47.782;10.618;2023-09-08T08:18:28;93794.72;;;21.38;71.25
82416;BME280;72058;47.782;10.618;2023-09-08T08:20:53;93789.63;;;21.44;71.32
82416;BME280;72058;47.782;10.618;2023-09-08T08:23:21;93786.22;;;21.57;71.14
82416;BME280;72058;47.782;10.618;2023-09-08T08:25:49;93783.63;;;21.79;70.26
82416;BME280;72058;47.782;10.618;2023-09-08T08:28:14;93786.41;;;21.79;69.34
82416;BME280;72058;47.782;10.618;2023-09-08T08:30:58;93785.28;;;21.87;69.96
82416;BME280;72058;47.782;10.618;2023-09-08T08:33:23;93780.28;;;22.00;69.55
82416;BME280;72058;47.782;10.618;2023-09-08T08:35:51;93785.81;;;22.00;69.15
82416;BME280;72058;47.782;10.618;2023-09-08T08:38:18;93782.69;;;22.05;69.87
82416;BME280;72058;47.782;10.618;2023-09-08T08:40:43;93787.44;;;22.04;69.71
82416;BME280;72058;47.782;10.618;2023-09-08T08:43:08;93784.69;;;22.08;69.42
82416;BME280;72058;47.782;10.618;2023-09-08T08:45:34;93783.84;;;22.00;69.55
82416;BME280;72058;47.782;10.618;2023-09-08T08:48:01;93782.25;;;22.03;70.19
82416;BME280;72058;47.782;10.618;2023-09-08T08:50:28;93785.41;;;22.01;70.17
82416;BME280;72058;47.782;10.618;2023-09-08T08:52:53;93782.66;;;22.01;70.25
82416;BME280;72058;47.782;10.618;2023-09-08T08:55:19;93787.00;;;22.02;70.61
82416;BME280;72058;47.782;10.618;2023-09-08T08:57:45;93788.25;;;22.08;71.02
82416;BME280;72058;47.782;10.618;2023-09-08T09:00:12;93782.31;;;22.10;70.82
82416;BME280;72058;47.782;10.618;2023-09-08T09:02:42;93776.38;;;22.08;70.72
82416;BME280;72058;47.782;10.618;2023-09-08T09:05:09;93783.19;;;22.17;71.01
82416;BME280;72058;47.782;10.618;2023-09-08T09:07:36;93783.19;;;22.21;70.68
82416;BME280;72058;47.782;10.618;2023-09-08T09:10:03;93781.69;;;22.30;71.02
82416;BME280;72058;47.782;10.618;2023-09-08T09:12:29;93788.38;;;22.26;70.91
82416;BME280;72058;47.782;10.618;2023-09-08T09:14:54;93786.44;;;22.30;70.48
82416;BME280;72058;47.782;10.618;2023-09-08T09:17:19;93776.91;;;22.27;70.77
82416;BME280;72058;47.782;10.618;2023-09-08T09:19:45;93775.00;;;22.39;69.98
82416;BME280;72058;47.782;10.618;2023-09-08T09:22:10;93782.13;;;22.43;70.38
82416;BME280;72058;47.782;10.618;2023-09-08T09:24:37;93775.03;;;22.46;70.34
82416;BME280;72058;47.782;10.618;2023-09-08T09:27:06;93779.78;;;22.45;70.55
82416;BME280;72058;47.782;10.618;2023-09-08T09:29:32;93779.06;;;22.55;70.24
82416;BME280;72058;47.782;10.618;2023-09-08T09:34:29;93776.34;;;22.66;69.50
82416;BME280;72058;47.782;10.618;2023-09-08T09:36:55;93771.97;;;22.65;69.46
82416;BME280;72058;47.782;10.618;2023-09-08T09:39:22;93775.13;;;22.63;70.11
82416;BME280;72058;47.782;10.618;2023-09-08T09:41:49;93774.75;;;22.65;70.50
82416;BME280;72058;47.782;10.618;2023-09-08T09:44:16;93776.41;;;22.77;70.19
82416;BME280;72058;47.782;10.618;2023-09-08T09:46:45;93775.22;;;22.74;69.71
82416;BME280;72058;47.782;10.618;2023-09-08T09:49:12;93778.81;;;22.82;69.69
82416;BME280;72058;47.782;10.618;2023-09-08T09:51:49;93772.50;;;22.88;68.99
82416;BME280;72058;47.782;10.618;2023-09-08T09:54:16;93776.88;;;22.89;69.25
82416;BME280;72058;47.782;10.618;2023-09-08T09:56:41;93776.47;;;22.87;69.25
82416;BME280;72058;47.782;10.618;2023-09-08T09:59:08;93777.63;;;22.79;70.30
82416;BME280;72058;47.782;10.618;2023-09-08T10:01:35;93770.47;;;22.78;70.23
82416;BME280;72058;47.782;10.618;2023-09-08T10:04:00;93778.81;;;22.82;69.80
82416;BME280;72058;47.782;10.618;2023-09-08T10:06:30;93771.69;;;22.88;69.24
82416;BME280;72058;47.782;10.618;2023-09-08T10:08:57;93770.13;;;22.83;68.94
82416;BME280;72058;47.782;10.618;2023-09-08T10:11:25;93776.84;;;22.82;69.46
82416;BME280;72058;47.782;10.618;2023-09-08T10:13:58;93768.94;;;22.84;69.45
82416;BME280;72058;47.782;10.618;2023-09-08T10:16:26;93771.69;;;22.88;69.93
82416;BME280;72058;47.782;10.618;2023-09-08T10:18:54;93773.34;;;22.99;68.89
82416;BME280;72058;47.782;10.618;2023-09-08T10:21:23;93770.19;;;23.04;68.36
82416;BME280;72058;47.782;10.618;2023-09-08T10:23:57;93767.03;;;23.10;67.82
82416;BME280;72058;47.782;10.618;2023-09-08T10:26:27;93764.28;;;23.10;68.16
82416;BME280;72058;47.782;10.618;2023-09-08T10:28:54;93757.91;;;23.09;67.87
82416;BME280;72058;47.782;10.618;2023-09-08T10:31:25;93761.50;;;23.10;67.71
82416;BME280;72058;47.782;10.618;2023-09-08T10:33:54;93757.13;;;23.16;66.83
82416;BME280;72058;47.782;10.618;2023-09-08T10:36:20;93757.13;;;23.16;66.69
82416;BME280;72058;47.782;10.618;2023-09-08T10:38:46;93757.13;;;23.16;66.25
82416;BME280;72058;47.782;10.618;2023-09-08T10:46:12;93755.94;;;23.13;66.54
82416;BME280;72058;47.782;10.618;2023-09-08T10:48:46;93751.59;;;23.16;67.01
82416;BME280;72058;47.782;10.618;2023-09-08T10:51:14;93750.78;;;23.12;66.28
82416;BME280;72058;47.782;10.618;2023-09-08T10:53:40;93748.84;;;23.26;66.46
82416;BME280;72058;47.782;10.618;2023-09-08T10:56:06;93750.81;;;23.36;64.70
82416;BME280;72058;47.782;10.618;2023-09-08T10:58:33;93743.31;;;23.40;64.17
82416;BME280;72058;47.782;10.618;2023-09-08T11:01:01;93749.66;;;23.41;63.71
82416;BME280;72058;47.782;10.618;2023-09-08T11:03:27;93740.53;;;23.40;64.71
82416;BME280;72058;47.782;10.618;2023-09-08T11:05:53;93743.72;;;23.42;64.54
82416;BME280;72058;47.782;10.618;2023-09-08T11:08:19;93741.34;;;23.41;64.54
82416;BME280;72058;47.782;10.618;2023-09-08T11:10:45;93747.66;;;23.45;63.80
82416;BME280;72058;47.782;10.618;2023-09-08T11:13:10;93751.66;;;23.48;64.35
82416;BME280;72058;47.782;10.618;2023-09-08T11:15:37;93746.13;;;23.62;64.05
82416;BME280;72058;47.782;10.618;2023-09-08T11:18:06;93747.31;;;23.61;63.85
82416;BME280;72058;47.782;10.618;2023-09-08T11:20:32;93746.94;;;23.69;63.20
82416;BME280;72058;47.782;10.618;2023-09-08T11:22:58;93747.34;;;23.78;63.06
82416;BME280;72058;47.782;10.618;2023-09-08T11:25:24;93742.19;;;23.80;64.19
82416;BME280;72058;47.782;10.618;2023-09-08T11:27:50;93747.72;;;23.77;64.52
82416;BME280;72058;47.782;10.618;2023-09-08T11:30:15;93737.44;;;23.85;64.67
82416;BME280;72058;47.782;10.618;2023-09-08T11:32:41;93737.03;;;23.90;64.88
82416;BME280;72058;47.782;10.618;2023-09-08T11:35:08;93740.59;;;24.01;63.33
82416;BME280;72058;47.782;10.618;2023-09-08T11:37:39;93747.75;;;23.98;62.96
82416;BME280;72058;47.782;10.618;2023-09-08T11:40:06;93752.50;;;24.05;62.94
82416;BME280;72058;47.782;10.618;2023-09-08T11:42:35;93748.13;;;24.04;62.45
82416;BME280;72058;47.782;10.618;2023-09-08T11:45:00;93743.75;;;23.96;63.04
82416;BME280;72058;47.782;10.618;2023-09-08T11:47:29;93746.13;;;23.94;63.21
82416;BME280;72058;47.782;10.618;2023-09-08T11:49:54;93739.41;;;23.91;63.23
82416;BME280;72058;47.782;10.618;2023-09-08T11:52:23;93748.94;;;23.97;63.34
82416;BME280;72058;47.782;10.618;2023-09-08T11:54:50;93750.13;;;23.96;62.80
82416;BME280;72058;47.782;10.618;2023-09-08T11:57:16;93749.31;;;23.99;62.61
82416;BME280;72058;47.782;10.618;2023-09-08T11:59:42;93751.31;;;23.95;62.40
82416;BME280;72058;47.782;10.618;2023-09-08T12:02:10;93746.16;;;23.90;62.90
82416;BME280;72058;47.782;10.618;2023-09-08T12:04:35;93741.00;;;23.99;62.58
82416;BME280;72058;47.782;10.618;2023-09-08T12:07:01;93740.19;;;24.02;62.73
82416;BME280;72058;47.782;10.618;2023-09-08T12:09:26;93748.53;;;24.06;61.79
82416;BME280;72058;47.782;10.618;2023-09-08T12:11:52;93742.56;;;24.11;61.32
82416;BME280;72058;47.782;10.618;2023-09-08T12:14:17;93735.81;;;24.15;61.32
82416;BME280;72058;47.782;10.618;2023-09-08T12:16:43;93743.38;;;24.18;61.92
82416;BME280;72058;47.782;10.618;2023-09-08T12:19:31;93748.91;;;24.15;62.19
82416;BME280;72058;47.782;10.618;2023-09-08T12:22:00;93744.56;;;24.17;61.84
82416;BME280;72058;47.782;10.618;2023-09-08T12:27:22;93740.59;;;24.22;62.21
82416;BME280;72058;47.782;10.618;2023-09-08T12:32:23;93742.16;;;24.30;62.25
82416;BME280;72058;47.782;10.618;2023-09-08T12:34:48;93737.41;;;24.24;62.05
82416;BME280;72058;47.782;10.618;2023-09-08T12:37:13;93736.63;;;24.27;62.39
82416;BME280;72058;47.782;10.618;2023-09-08T12:39:39;93741.41;;;24.26;62.35
82416;BME280;72058;47.782;10.618;2023-09-08T12:42:04;93735.81;;;24.23;61.83
82416;BME280;72058;47.782;10.618;2023-09-08T12:44:30;93734.22;;;24.18;61.94
82416;BME280;72058;47.782;10.618;2023-09-08T12:46:55;93735.78;;;24.19;61.94
82416;BME280;72058;47.782;10.618;2023-09-08T12:49:20;93737.41;;;24.24;61.56
82416;BME280;72058;47.782;10.618;2023-09-08T12:51:46;93729.84;;;24.28;61.63
82416;BME280;72058;47.782;10.618;2023-09-08T12:54:11;93731.84;;;24.27;61.80
82416;BME280;72058;47.782;10.618;2023-09-08T12:56:36;93729.84;;;24.28;61.50
82416;BME280;72058;47.782;10.618;2023-09-08T12:59:02;93734.63;;;24.34;60.33
82416;BME280;72058;47.782;10.618;2023-09-08T13:01:28;93721.47;;;24.45;59.53